sensor_id;sensor_type;location;lat;lon;timestamp;pressure;altitude;pressure_sealevel;temperature;humidity
19286;BME280;9776;50.798;6.430;2023-01-28T00:00:02;101337.25;;;5.40;65.36
19286;BME280;9776;50.798;6.430;2023-01-28T00:02:31;101328.84;;;5.35;65.66
19286;BME280;9776;50.798;6.430;2023-01-28T00:04:57;101329.75;;;5.34;65.27
19286;BME280;9776;50.798;6.430;2023-01-28T00:07:24;101337.78;;;5.31;65.27
19286;BME280;9776;50.798;6.430;2023-01-28T00:09:51;101343.88;;;5.32;65.03
19286;BME280;9776;50.798;6.430;2023-01-28T00:12:18;101334.38;;;5.31;65.14
19286;BME280;9776;50.798;6.430;2023-01-28T00:14:44;101338.75;;;5.30;65.13
19286;BME280;9776;50.798;6.430;2023-01-28T00:17:13;101337.06;;;5.29;64.99
19286;BME280;9776;50.798;6.430;2023-01-28T00:19:40;101337.06;;;5.29;64.93
19286;BME280;9776;50.798;6.430;2023-01-28T00:22:07;101337.97;;;5.28;64.98
19286;BME280;9776;50.798;6.430;2023-01-28T00:24:33;101336.38;;;5.26;64.84
19286;BME280;9776;50.798;6.430;2023-01-28T00:27:00;101342.56;;;5.25;64.76
19286;BME280;9776;50.798;6.430;2023-01-28T00:29:27;101334.63;;;5.26;64.63
19286;BME280;9776;50.798;6.430;2023-01-28T00:31:54;101333.13;;;5.22;64.78
19286;BME280;9776;50.798;6.430;2023-01-28T00:34:22;101336.38;;;5.26;64.55
19286;BME280;9776;50.798;6.430;2023-01-28T00:36:49;101329.50;;;5.25;64.35
19286;BME280;9776;50.798;6.430;2023-01-28T00:39:22;101325.09;;;5.25;64.42
19286;BME280;9776;50.798;6.430;2023-01-28T00:41:49;101332.97;;;5.25;64.38
19286;BME280;9776;50.798;6.430;2023-01-28T00:44:16;101321.72;;;5.23;64.32
19286;BME280;9776;50.798;6.430;2023-01-28T00:46:43;101328.66;;;5.24;64.31
19286;BME280;9776;50.798;6.430;2023-01-28T00:49:10;101328.47;;;5.27;64.14
19286;BME280;9776;50.798;6.430;2023-01-28T00:51:38;101324.16;;;5.26;64.08
19286;BME280;9776;50.798;6.430;2023-01-28T00:54:05;101333.50;;;5.30;64.10
19286;BME280;9776;50.798;6.430;2023-01-28T00:56:31;101330.78;;;5.32;64.05
19286;BME280;9776;50.798;6.430;2023-01-28T00:58:58;101330.72;;;5.33;64.13
19286;BME280;9776;50.798;6.430;2023-01-28T01:01:26;101320.50;;;5.29;64.10
19286;BME280;9776;50.798;6.430;2023-01-28T01:03:54;101323.22;;;5.27;64.04
19286;BME280;9776;50.798;6.430;2023-01-28T01:06:27;101328.47;;;5.27;64.09
19286;BME280;9776;50.798;6.430;2023-01-28T01:08:56;101323.13;;;5.29;63.93
19286;BME280;9776;50.798;6.430;2023-01-28T01:11:22;101314.53;;;5.27;63.91
19286;BME280;9776;50.798;6.430;2023-01-28T01:13:51;101316.31;;;5.26;64.04
19286;BME280;9776;50.798;6.430;2023-01-28T01:16:19;101314.53;;;5.27;63.96
19286;BME280;9776;50.798;6.430;2023-01-28T01:18:46;101322.38;;;5.27;63.87
19286;BME280;9776;50.798;6.430;2023-01-28T01:21:15;101313.78;;;5.25;63.84
19286;BME280;9776;50.798;6.430;2023-01-28T01:23:44;101319.88;;;5.25;63.90
19286;BME280;9776;50.798;6.430;2023-01-28T01:26:12;101325.91;;;5.26;63.82
19286;BME280;9776;50.798;6.430;2023-01-28T01:28:39;101333.03;;;5.24;63.77
19286;BME280;9776;50.798;6.430;2023-01-28T01:31:09;101339.28;;;5.21;63.87
19286;BME280;9776;50.798;6.430;2023-01-28T01:33:37;101328.09;;;5.19;64.01
19286;BME280;9776;50.798;6.430;2023-01-28T01:36:04;101335.94;;;5.19;64.01
19286;BME280;9776;50.798;6.430;2023-01-28T01:38:31;101326.56;;;5.15;64.08
19286;BME280;9776;50.798;6.430;2023-01-28T01:41:00;101331.63;;;5.18;64.07
19286;BME280;9776;50.798;6.430;2023-01-28T01:43:47;101323.03;;;5.16;63.98
19286;BME280;9776;50.798;6.430;2023-01-28T01:46:16;101331.53;;;5.20;64.08
19286;BME280;9776;50.798;6.430;2023-01-28T01:48:45;101333.38;;;5.18;63.95
19286;BME280;9776;50.798;6.430;2023-01-28T01:51:14;101335.16;;;5.17;63.92
19286;BME280;9776;50.798;6.430;2023-01-28T01:53:44;101334.41;;;5.15;63.99
19286;BME280;9776;50.798;6.430;2023-01-28T01:56:16;101331.97;;;5.12;64.04
19286;BME280;9776;50.798;6.430;2023-01-28T01:58:48;101339.84;;;5.12;63.97
19286;BME280;9776;50.798;6.430;2023-01-28T02:01:16;101331.25;;;5.10;63.96
19286;BME280;9776;50.798;6.430;2023-01-28T02:03:51;101332.91;;;5.11;63.85
19286;BME280;9776;50.798;6.430;2023-01-28T02:06:19;101341.72;;;5.10;63.95
19286;BME280;9776;50.798;6.430;2023-01-28T02:08:46;101339.16;;;5.08;63.94
19286;BME280;9776;50.798;6.430;2023-01-28T02:11:13;101345.34;;;5.07;63.87
19286;BME280;9776;50.798;6.430;2023-01-28T02:13:45;101343.75;;;5.05;63.81
19286;BME280;9776;50.798;6.430;2023-01-28T02:16:15;101350.84;;;5.03;63.70
19286;BME280;9776;50.798;6.430;2023-01-28T02:18:42;101340.38;;;5.03;63.81
19286;BME280;9776;50.798;6.430;2023-01-28T02:21:36;101336.63;;;4.93;63.75
19286;BME280;9776;50.798;6.430;2023-01-28T02:27:35;101345.84;;;4.84;63.71
19286;BME280;9776;50.798;6.430;2023-01-28T02:30:10;101345.06;;;4.82;63.77
19286;BME280;9776;50.798;6.430;2023-01-28T02:32:42;101347.69;;;4.82;63.71
19286;BME280;9776;50.798;6.430;2023-01-28T02:35:13;101348.34;;;4.86;63.71
19286;BME280;9776;50.798;6.430;2023-01-28T02:37:45;101348.44;;;4.84;63.60
19286;BME280;9776;50.798;6.430;2023-01-28T02:40:16;101346.84;;;4.82;63.65
19286;BME280;9776;50.798;6.430;2023-01-28T02:42:44;101347.78;;;4.81;63.84
19286;BME280;9776;50.798;6.430;2023-01-28T02:45:17;101343.28;;;4.83;63.54
19286;BME280;9776;50.798;6.430;2023-01-28T02:47:45;101347.59;;;4.84;63.40
19286;BME280;9776;50.798;6.430;2023-01-28T02:50:28;101353.69;;;4.84;63.48
19286;BME280;9776;50.798;6.430;2023-01-28T02:53:06;101350.22;;;4.84;63.32
19286;BME280;9776;50.798;6.430;2023-01-28T02:55:59;101361.53;;;4.84;63.39
19286;BME280;9776;50.798;6.430;2023-01-28T02:58:34;101362.38;;;4.85;63.27
19286;BME280;9776;50.798;6.430;2023-01-28T03:01:10;101367.59;;;4.85;63.29
19286;BME280;9776;50.798;6.430;2023-01-28T03:03:49;101372.06;;;4.83;63.44
19286;BME280;9776;50.798;6.430;2023-01-28T03:06:25;101373.09;;;4.80;63.35
19286;BME280;9776;50.798;6.430;2023-01-28T03:08:56;101384.22;;;4.84;63.41
19286;BME280;9776;50.798;6.430;2023-01-28T03:11:43;101384.97;;;4.86;63.36
19286;BME280;9776;50.798;6.430;2023-01-28T03:14:31;101385.06;;;4.84;63.40
19286;BME280;9776;50.798;6.430;2023-01-28T03:17:20;101384.97;;;4.86;63.29
19286;BME280;9776;50.798;6.430;2023-01-28T03:20:08;101393.84;;;4.83;63.36
19286;BME280;9776;50.798;6.430;2023-01-28T03:22:55;101384.22;;;4.84;63.45
19286;BME280;9776;50.798;6.430;2023-01-28T03:25:43;101384.28;;;4.82;63.48
19286;BME280;9776;50.798;6.430;2023-01-28T03:28:31;101384.28;;;4.82;63.51
19286;BME280;9776;50.798;6.430;2023-01-28T03:31:19;101386.00;;;4.83;63.48
19286;BME280;9776;50.798;6.430;2023-01-28T03:34:09;101383.31;;;4.85;63.41
19286;BME280;9776;50.798;6.430;2023-01-28T03:36:54;101379.91;;;4.83;63.38
19286;BME280;9776;50.798;6.430;2023-01-28T03:39:24;101388.44;;;4.86;63.36
19286;BME280;9776;50.798;6.430;2023-01-28T03:41:56;101386.72;;;4.85;63.34
19286;BME280;9776;50.798;6.430;2023-01-28T03:44:23;101387.69;;;4.84;63.51
19286;BME280;9776;50.798;6.430;2023-01-28T03:47:08;101386.91;;;4.82;63.48
19286;BME280;9776;50.798;6.430;2023-01-28T03:49:38;101387.00;;;4.81;63.36
19286;BME280;9776;50.798;6.430;2023-01-28T03:52:05;101394.13;;;4.79;63.52
19286;BME280;9776;50.798;6.430;2023-01-28T03:54:32;101393.16;;;4.80;63.35
19286;BME280;9776;50.798;6.430;2023-01-28T03:56:58;101401.00;;;4.80;63.52
19286;BME280;9776;50.798;6.430;2023-01-28T03:59:25;101394.47;;;4.73;63.46
19286;BME280;9776;50.798;6.430;2023-01-28T04:01:52;101398.00;;;4.72;63.40
19286;BME280;9776;50.798;6.430;2023-01-28T04:04:19;101399.19;;;4.66;63.46
19286;BME280;9776;50.798;6.430;2023-01-28T04:06:51;101398.66;;;4.59;63.63
19286;BME280;9776;50.798;6.430;2023-01-28T04:09:18;101397.81;;;4.59;63.42
19286;BME280;9776;50.798;6.430;2023-01-28T04:11:45;101401.28;;;4.59;63.50
19286;BME280;9776;50.798;6.430;2023-01-28T04:14:12;101400.69;;;4.54;63.66
19286;BME280;9776;50.798;6.430;2023-01-28T04:16:39;101400.69;;;4.54;63.52
19286;BME280;9776;50.798;6.430;2023-01-28T04:19:07;101404.56;;;4.47;63.74
19286;BME280;9776;50.798;6.430;2023-01-28T04:21:34;101398.69;;;4.44;63.82
19286;BME280;9776;50.798;6.430;2023-01-28T04:24:02;101402.91;;;4.46;63.71
19286;BME280;9776;50.798;6.430;2023-01-28T04:26:28;101408.88;;;4.48;63.59
19286;BME280;9776;50.798;6.430;2023-01-28T04:28:55;101413.34;;;4.46;63.56
19286;BME280;9776;50.798;6.430;2023-01-28T04:31:22;101410.91;;;4.43;63.75
19286;BME280;9776;50.798;6.430;2023-01-28T04:33:49;101402.22;;;4.43;63.78
19286;BME280;9776;50.798;6.430;2023-01-28T04:36:16;101405.59;;;4.45;63.81
19286;BME280;9776;50.798;6.430;2023-01-28T04:38:42;101417.63;;;4.47;63.65
19286;BME280;9776;50.798;6.430;2023-01-28T04:41:11;101419.28;;;4.50;63.81
19286;BME280;9776;50.798;6.430;2023-01-28T04:43:37;101414.09;;;4.48;63.68
19286;BME280;9776;50.798;6.430;2023-01-28T04:46:04;101418.31;;;4.51;63.71
19286;BME280;9776;50.798;6.430;2023-01-28T04:48:32;101420.03;;;4.52;63.70
19286;BME280;9776;50.798;6.430;2023-01-28T04:51:01;101424.56;;;4.48;63.72
19286;BME280;9776;50.798;6.430;2023-01-28T04:53:27;101427.09;;;4.50;63.69
19286;BME280;9776;50.798;6.430;2023-01-28T04:55:55;101428.09;;;4.47;63.66
19286;BME280;9776;50.798;6.430;2023-01-28T04:58:23;101426.31;;;4.48;63.68
19286;BME280;9776;50.798;6.430;2023-01-28T05:00:53;101424.50;;;4.50;63.71
19286;BME280;9776;50.798;6.430;2023-01-28T05:03:20;101432.25;;;4.51;63.70
19286;BME280;9776;50.798;6.430;2023-01-28T05:05:47;101423.38;;;4.54;63.65
19286;BME280;9776;50.798;6.430;2023-01-28T05:08:13;101420.69;;;4.55;63.55
19286;BME280;9776;50.798;6.430;2023-01-28T05:10:40;101428.59;;;4.54;63.76
19286;BME280;9776;50.798;6.430;2023-01-28T05:13:07;101423.31;;;4.55;63.66
19286;BME280;9776;50.798;6.430;2023-01-28T05:15:36;101426.69;;;4.57;63.69
19286;BME280;9776;50.798;6.430;2023-01-28T05:18:03;101419.69;;;4.58;63.49
19286;BME280;9776;50.798;6.430;2023-01-28T05:20:29;101420.53;;;4.58;63.52
19286;BME280;9776;50.798;6.430;2023-01-28T05:22:56;101422.38;;;4.56;63.44
19286;BME280;9776;50.798;6.430;2023-01-28T05:25:23;101424.13;;;4.56;63.46
19286;BME280;9776;50.798;6.430;2023-01-28T05:27:51;101424.97;;;4.56;63.43
19286;BME280;9776;50.798;6.430;2023-01-28T05:30:18;101414.69;;;4.53;63.46
19286;BME280;9776;50.798;6.430;2023-01-28T05:32:47;101422.63;;;4.52;63.53
19286;BME280;9776;50.798;6.430;2023-01-28T05:35:14;101427.94;;;4.50;63.45
19286;BME280;9776;50.798;6.430;2023-01-28T05:37:40;101423.66;;;4.49;63.54
19286;BME280;9776;50.798;6.430;2023-01-28T05:40:08;101426.16;;;4.51;63.65
19286;BME280;9776;50.798;6.430;2023-01-28T05:42:35;101431.31;;;4.52;63.30
19286;BME280;9776;50.798;6.430;2023-01-28T05:45:02;101433.78;;;4.55;63.61
19286;BME280;9776;50.798;6.430;2023-01-28T05:47:29;101429.28;;;4.57;63.43
19286;BME280;9776;50.798;6.430;2023-01-28T05:49:57;101430.03;;;4.59;63.45
19286;BME280;9776;50.798;6.430;2023-01-28T05:52:24;101428.22;;;4.62;63.44
19286;BME280;9776;50.798;6.430;2023-01-28T05:54:50;101434.34;;;4.61;63.37
19286;BME280;9776;50.798;6.430;2023-01-28T05:57:17;101435.28;;;4.59;63.42
19286;BME280;9776;50.798;6.430;2023-01-28T05:59:44;101432.75;;;4.58;63.36
19286;BME280;9776;50.798;6.430;2023-01-28T06:02:11;101438.84;;;4.58;63.36
19286;BME280;9776;50.798;6.430;2023-01-28T06:04:37;101442.38;;;4.57;63.44
19286;BME280;9776;50.798;6.430;2023-01-28T06:07:05;101447.44;;;4.61;63.44
19286;BME280;9776;50.798;6.430;2023-01-28T06:09:32;101449.53;;;4.54;63.44
19286;BME280;9776;50.798;6.430;2023-01-28T06:11:59;101454.69;;;4.55;63.42
19286;BME280;9776;50.798;6.430;2023-01-28T06:14:26;101458.22;;;4.54;63.38
19286;BME280;9776;50.798;6.430;2023-01-28T06:16:53;101455.78;;;4.51;63.44
19286;BME280;9776;50.798;6.430;2023-01-28T06:19:19;101458.38;;;4.51;63.53
19286;BME280;9776;50.798;6.430;2023-01-28T06:21:46;101459.41;;;4.49;63.53
19286;BME280;9776;50.798;6.430;2023-01-28T06:24:14;101469.91;;;4.47;63.57
19286;BME280;9776;50.798;6.430;2023-01-28T06:26:41;101467.47;;;4.44;63.49
19286;BME280;9776;50.798;6.430;2023-01-28T06:29:08;101467.66;;;4.41;63.50
19286;BME280;9776;50.798;6.430;2023-01-28T06:31:34;101467.72;;;4.40;63.50
19286;BME280;9776;50.798;6.430;2023-01-28T06:34:02;101467.03;;;4.36;63.52
19286;BME280;9776;50.798;6.430;2023-01-28T06:36:29;101468.16;;;4.32;63.60
19286;BME280;9776;50.798;6.430;2023-01-28T06:38:55;101461.97;;;4.33;63.52
19286;BME280;9776;50.798;6.430;2023-01-28T06:41:24;101466.13;;;4.37;63.42
19286;BME280;9776;50.798;6.430;2023-01-28T06:43:51;101462.59;;;4.38;63.31
19286;BME280;9776;50.798;6.430;2023-01-28T06:46:17;101469.50;;;4.39;63.34
19286;BME280;9776;50.798;6.430;2023-01-28T06:48:44;101464.28;;;4.39;63.02
19286;BME280;9776;50.798;6.430;2023-01-28T06:51:11;101468.00;;;4.35;63.18
19286;BME280;9776;50.798;6.430;2023-01-28T06:53:38;101474.03;;;4.36;63.12
19286;BME280;9776;50.798;6.430;2023-01-28T06:56:05;101466.63;;;4.28;63.27
19286;BME280;9776;50.798;6.430;2023-01-28T06:58:34;101474.19;;;4.17;63.53
19286;BME280;9776;50.798;6.430;2023-01-28T07:01:01;101464.00;;;4.13;63.66
19286;BME280;9776;50.798;6.430;2023-01-28T07:03:28;101465.44;;;4.18;63.32
19286;BME280;9776;50.798;6.430;2023-01-28T07:05:54;101461.56;;;4.25;63.23
19286;BME280;9776;50.798;6.430;2023-01-28T07:08:21;101465.06;;;4.24;63.28
19286;BME280;9776;50.798;6.430;2023-01-28T07:10:48;101462.72;;;4.20;63.21
19286;BME280;9776;50.798;6.430;2023-01-28T07:13:15;101473.00;;;4.23;63.11
19286;BME280;9776;50.798;6.430;2023-01-28T07:15:43;101475.72;;;4.21;62.95
19286;BME280;9776;50.798;6.430;2023-01-28T07:18:09;101480.25;;;4.18;63.15
19286;BME280;9776;50.798;6.430;2023-01-28T07:20:36;101475.78;;;4.20;62.95
19286;BME280;9776;50.798;6.430;2023-01-28T07:23:03;101470.41;;;4.23;62.97
19286;BME280;9776;50.798;6.430;2023-01-28T07:25:30;101469.56;;;4.22;62.94
19286;BME280;9776;50.798;6.430;2023-01-28T07:27:57;101473.88;;;4.23;62.83
19286;BME280;9776;50.798;6.430;2023-01-28T07:30:23;101470.50;;;4.21;62.97
19286;BME280;9776;50.798;6.430;2023-01-28T07:32:56;101478.09;;;4.26;62.62
19286;BME280;9776;50.798;6.430;2023-01-28T07:35:23;101472.75;;;4.27;62.59
19286;BME280;9776;50.798;6.430;2023-01-28T07:37:52;101472.69;;;4.29;62.42
19286;BME280;9776;50.798;6.430;2023-01-28T07:40:19;101473.53;;;4.29;62.40
19286;BME280;9776;50.798;6.430;2023-01-28T07:42:46;101476.06;;;4.31;62.30
19286;BME280;9776;50.798;6.430;2023-01-28T07:45:13;101479.63;;;4.30;62.29
19286;BME280;9776;50.798;6.430;2023-01-28T07:47:40;101482.41;;;4.27;62.50
19286;BME280;9776;50.798;6.430;2023-01-28T07:50:10;101479.53;;;4.31;62.17
19286;BME280;9776;50.798;6.430;2023-01-28T07:52:37;101475.22;;;4.30;62.19
19286;BME280;9776;50.798;6.430;2023-01-28T07:55:09;101475.22;;;4.30;62.28
19286;BME280;9776;50.798;6.430;2023-01-28T07:57:37;101479.47;;;4.33;62.14
19286;BME280;9776;50.798;6.430;2023-01-28T08:00:04;101482.88;;;4.33;62.27
19286;BME280;9776;50.798;6.430;2023-01-28T08:02:31;101478.63;;;4.32;62.13
19286;BME280;9776;50.798;6.430;2023-01-28T08:04:58;101480.28;;;4.33;61.99
19286;BME280;9776;50.798;6.430;2023-01-28T08:07:28;101493.28;;;4.35;61.89
19286;BME280;9776;50.798;6.430;2023-01-28T08:09:55;101496.66;;;4.37;61.79
19286;BME280;9776;50.798;6.430;2023-01-28T08:12:21;101494.94;;;4.36;61.67
19286;BME280;9776;50.798;6.430;2023-01-28T08:14:48;101505.34;;;4.37;61.57
19286;BME280;9776;50.798;6.430;2023-01-28T08:17:15;101503.56;;;4.38;61.53
19286;BME280;9776;50.798;6.430;2023-01-28T08:19:42;101500.00;;;4.39;61.46
19286;BME280;9776;50.798;6.430;2023-01-28T08:22:09;101507.78;;;4.40;61.41
19286;BME280;9776;50.798;6.430;2023-01-28T08:24:37;101513.88;;;4.41;61.34
19286;BME280;9776;50.798;6.430;2023-01-28T08:27:04;101509.03;;;4.33;61.37
19286;BME280;9776;50.798;6.430;2023-01-28T08:29:31;101513.81;;;4.25;61.48
19286;BME280;9776;50.798;6.430;2023-01-28T08:31:58;101520.91;;;4.23;61.57
19286;BME280;9776;50.798;6.430;2023-01-28T08:34:25;101515.00;;;4.20;61.54
19286;BME280;9776;50.798;6.430;2023-01-28T08:36:51;101521.81;;;4.22;61.48
19286;BME280;9776;50.798;6.430;2023-01-28T08:39:18;101519.53;;;4.16;61.47
19286;BME280;9776;50.798;6.430;2023-01-28T08:41:47;101527.91;;;4.23;61.33
19286;BME280;9776;50.798;6.430;2023-01-28T08:44:14;101517.53;;;4.21;61.33
19286;BME280;9776;50.798;6.430;2023-01-28T08:46:41;101529.34;;;4.28;61.08
19286;BME280;9776;50.798;6.430;2023-01-28T08:49:08;101530.25;;;4.27;60.95
19286;BME280;9776;50.798;6.430;2023-01-28T08:51:35;101531.72;;;4.33;60.85
19286;BME280;9776;50.798;6.430;2023-01-28T08:54:02;101525.28;;;4.23;61.19
19286;BME280;9776;50.798;6.430;2023-01-28T08:56:29;101529.81;;;4.19;61.22
19286;BME280;9776;50.798;6.430;2023-01-28T08:58:57;101532.22;;;4.24;61.13
19286;BME280;9776;50.798;6.430;2023-01-28T09:01:24;101541.34;;;4.32;60.95
19286;BME280;9776;50.798;6.430;2023-01-28T09:03:53;101541.84;;;4.39;60.58
19286;BME280;9776;50.798;6.430;2023-01-28T09:06:21;101541.78;;;4.40;60.81
19286;BME280;9776;50.798;6.430;2023-01-28T09:08:47;101558.06;;;4.45;60.24
19286;BME280;9776;50.798;6.430;2023-01-28T09:11:14;101550.91;;;4.49;60.22
19286;BME280;9776;50.798;6.430;2023-01-28T09:13:41;101557.31;;;4.43;60.25
19286;BME280;9776;50.798;6.430;2023-01-28T09:16:09;101553.31;;;4.36;60.37
19286;BME280;9776;50.798;6.430;2023-01-28T09:18:36;101556.84;;;4.35;60.39
19286;BME280;9776;50.798;6.430;2023-01-28T09:21:04;101574.53;;;4.30;60.64
19286;BME280;9776;50.798;6.430;2023-01-28T09:23:33;101576.38;;;4.28;60.56
19286;BME280;9776;50.798;6.430;2023-01-28T09:26:00;101570.13;;;4.15;60.77
19286;BME280;9776;50.798;6.430;2023-01-28T09:28:27;101578.56;;;4.20;60.71
19286;BME280;9776;50.798;6.430;2023-01-28T09:31:00;101579.00;;;4.11;60.91
19286;BME280;9776;50.798;6.430;2023-01-28T09:33:28;101588.06;;;4.04;61.05
19286;BME280;9776;50.798;6.430;2023-01-28T09:35:55;101586.69;;;4.14;60.73
19286;BME280;9776;50.798;6.430;2023-01-28T09:38:24;101584.63;;;4.21;60.60
19286;BME280;9776;50.798;6.430;2023-01-28T09:40:51;101588.91;;;4.22;60.41
19286;BME280;9776;50.798;6.430;2023-01-28T09:43:36;101593.22;;;4.23;60.25
19286;BME280;9776;50.798;6.430;2023-01-28T09:46:11;101599.00;;;4.29;60.23
19286;BME280;9776;50.798;6.430;2023-01-28T09:48:43;101599.44;;;4.37;59.89
19286;BME280;9776;50.798;6.430;2023-01-28T09:51:19;101613.88;;;4.27;59.85
19286;BME280;9776;50.798;6.430;2023-01-28T09:53:51;101611.38;;;4.26;59.96
19286;BME280;9776;50.798;6.430;2023-01-28T09:56:24;101605.88;;;4.30;59.88
19286;BME280;9776;50.798;6.430;2023-01-28T09:58:53;101603.13;;;4.33;59.72
19286;BME280;9776;50.798;6.430;2023-01-28T10:01:34;101603.75;;;4.38;59.41
19286;BME280;9776;50.798;6.430;2023-01-28T10:04:11;101606.22;;;4.41;59.29
19286;BME280;9776;50.798;6.430;2023-01-28T10:06:47;101613.56;;;4.50;59.14
19286;BME280;9776;50.798;6.430;2023-01-28T10:09:42;101596.03;;;4.52;58.85
19286;BME280;9776;50.798;6.430;2023-01-28T10:12:33;101611.41;;;4.58;58.58
19286;BME280;9776;50.798;6.430;2023-01-28T10:15:19;101622.84;;;4.56;58.63
19286;BME280;9776;50.798;6.430;2023-01-28T10:17:51;101619.09;;;4.62;58.55
19286;BME280;9776;50.798;6.430;2023-01-28T10:20:23;101613.34;;;4.71;58.17
19286;BME280;9776;50.798;6.430;2023-01-28T10:22:57;101617.69;;;4.72;58.11
19286;BME280;9776;50.798;6.430;2023-01-28T10:25:29;101628.88;;;4.74;58.03
19286;BME280;9776;50.798;6.430;2023-01-28T10:27:57;101627.97;;;4.75;58.00
19286;BME280;9776;50.798;6.430;2023-01-28T10:30:29;101613.34;;;4.71;57.92
19286;BME280;9776;50.798;6.430;2023-01-28T10:33:00;101620.22;;;4.73;57.78
19286;BME280;9776;50.798;6.430;2023-01-28T10:35:34;101613.50;;;4.68;57.76
19286;BME280;9776;50.798;6.430;2023-01-28T10:38:05;101614.38;;;4.68;57.65
19286;BME280;9776;50.798;6.430;2023-01-28T10:40:33;101623.75;;;4.72;57.47
19286;BME280;9776;50.798;6.430;2023-01-28T10:43:00;101616.50;;;4.77;57.23
19286;BME280;9776;50.798;6.430;2023-01-28T10:45:29;101627.50;;;4.84;56.94
19286;BME280;9776;50.798;6.430;2023-01-28T10:48:00;101607.25;;;4.87;56.75
19286;BME280;9776;50.798;6.430;2023-01-28T10:50:30;101608.00;;;4.89;56.66
19286;BME280;9776;50.798;6.430;2023-01-28T10:53:00;101610.53;;;4.91;56.37
19286;BME280;9776;50.798;6.430;2023-01-28T10:55:29;101609.44;;;4.95;56.14
19286;BME280;9776;50.798;6.430;2023-01-28T10:57:57;101600.53;;;4.99;55.97
19286;BME280;9776;50.798;6.430;2023-01-28T11:00:26;101593.25;;;5.04;55.71
19286;BME280;9776;50.798;6.430;2023-01-28T11:02:55;101593.84;;;5.09;55.47
19286;BME280;9776;50.798;6.430;2023-01-28T11:05:25;101604.91;;;5.14;55.13
19286;BME280;9776;50.798;6.430;2023-01-28T11:08:06;101603.53;;;5.23;54.77
19286;BME280;9776;50.798;6.430;2023-01-28T11:10:38;101615.22;;;5.33;54.52
19286;BME280;9776;50.798;6.430;2023-01-28T11:13:14;101601.78;;;5.39;54.17
19286;BME280;9776;50.798;6.430;2023-01-28T11:15:46;101607.78;;;5.41;54.13
19286;BME280;9776;50.798;6.430;2023-01-28T11:18:17;101617.22;;;5.43;54.10
19286;BME280;9776;50.798;6.430;2023-01-28T11:20:50;101610.97;;;5.46;53.99
19286;BME280;9776;50.798;6.430;2023-01-28T11:23:23;101601.75;;;5.54;53.68
19286;BME280;9776;50.798;6.430;2023-01-28T11:25:59;101610.97;;;5.61;53.19
19286;BME280;9776;50.798;6.430;2023-01-28T11:28:29;101607.91;;;5.69;53.17
19286;BME280;9776;50.798;6.430;2023-01-28T11:30:57;101609.16;;;5.78;52.92
19286;BME280;9776;50.798;6.430;2023-01-28T11:33:30;101603.09;;;5.93;52.53
19286;BME280;9776;50.798;6.430;2023-01-28T11:36:05;101602.94;;;6.10;51.95
19286;BME280;9776;50.798;6.430;2023-01-28T11:38:34;101599.06;;;6.31;51.77
19286;BME280;9776;50.798;6.430;2023-01-28T11:41:00;101603.03;;;6.66;51.26
19286;BME280;9776;50.798;6.430;2023-01-28T11:43:29;101598.13;;;7.03;50.77
19286;BME280;9776;50.798;6.430;2023-01-28T11:46:05;101601.09;;;7.25;50.04
19286;BME280;9776;50.798;6.430;2023-01-28T11:48:41;101605.13;;;7.16;50.06
19286;BME280;9776;50.798;6.430;2023-01-28T11:51:27;101603.41;;;6.89;50.48
19286;BME280;9776;50.798;6.430;2023-01-28T11:54:05;101605.84;;;6.63;51.13
19286;BME280;9776;50.798;6.430;2023-01-28T11:56:48;101600.38;;;6.38;51.51
19286;BME280;9776;50.798;6.430;2023-01-28T12:02:21;101608.16;;;5.96;52.53
19286;BME280;9776;50.798;6.430;2023-01-28T12:05:18;101610.88;;;5.79;53.25
19286;BME280;9776;50.798;6.430;2023-01-28T12:07:54;101609.59;;;5.70;53.66
19286;BME280;9776;50.798;6.430;2023-01-28T12:10:28;101603.13;;;5.61;53.93
19286;BME280;9776;50.798;6.430;2023-01-28T12:13:07;101596.88;;;5.48;54.53
19286;BME280;9776;50.798;6.430;2023-01-28T12:16:02;101592.00;;;5.42;54.93
19286;BME280;9776;50.798;6.430;2023-01-28T12:19:08;101591.16;;;5.42;55.00
19286;BME280;9776;50.798;6.430;2023-01-28T12:21:49;101587.41;;;5.46;55.22
19286;BME280;9776;50.798;6.430;2023-01-28T12:24:32;101584.88;;;5.44;55.41
19286;BME280;9776;50.798;6.430;2023-01-28T12:27:09;101580.56;;;5.43;55.44
19286;BME280;9776;50.798;6.430;2023-01-28T12:29:47;101579.56;;;5.46;55.50
19286;BME280;9776;50.798;6.430;2023-01-28T12:32:33;101571.69;;;5.46;55.42
19286;BME280;9776;50.798;6.430;2023-01-28T12:35:28;101582.00;;;5.49;55.49
19286;BME280;9776;50.798;6.430;2023-01-28T12:38:07;101590.53;;;5.52;55.47
19286;BME280;9776;50.798;6.430;2023-01-28T12:40:56;101593.25;;;5.51;55.59
19286;BME280;9776;50.798;6.430;2023-01-28T12:43:38;101589.97;;;5.47;55.78
19286;BME280;9776;50.798;6.430;2023-01-28T12:46:11;101581.94;;;5.50;55.88
19286;BME280;9776;50.798;6.430;2023-01-28T12:48:45;101580.81;;;5.54;55.82
19286;BME280;9776;50.798;6.430;2023-01-28T12:51:15;101584.78;;;5.61;55.65
19286;BME280;9776;50.798;6.430;2023-01-28T12:53:48;101571.16;;;5.70;55.55
19286;BME280;9776;50.798;6.430;2023-01-28T12:56:21;101573.44;;;5.77;55.37
19286;BME280;9776;50.798;6.430;2023-01-28T12:58:54;101574.28;;;5.77;55.25
19286;BME280;9776;50.798;6.430;2023-01-28T13:01:27;101571.47;;;5.80;55.08
19286;BME280;9776;50.798;6.430;2023-01-28T13:03:59;101563.81;;;5.77;54.95
19286;BME280;9776;50.798;6.430;2023-01-28T13:06:31;101564.22;;;5.69;55.20
19286;BME280;9776;50.798;6.430;2023-01-28T13:09:02;101560.28;;;5.62;55.11
19286;BME280;9776;50.798;6.430;2023-01-28T13:11:37;101555.47;;;5.55;55.21
19286;BME280;9776;50.798;6.430;2023-01-28T13:14:06;101541.69;;;5.51;55.26
19286;BME280;9776;50.798;6.430;2023-01-28T13:16:34;101528.03;;;5.46;55.15
19286;BME280;9776;50.798;6.430;2023-01-28T13:19:07;101536.84;;;5.45;55.08
19286;BME280;9776;50.798;6.430;2023-01-28T13:21:35;101532.53;;;5.44;54.99
19286;BME280;9776;50.798;6.430;2023-01-28T13:24:21;101524.75;;;5.43;54.62
19286;BME280;9776;50.798;6.430;2023-01-28T13:26:49;101533.28;;;5.46;54.48
19286;BME280;9776;50.798;6.430;2023-01-28T13:29:21;101528.72;;;5.50;54.44
19286;BME280;9776;50.798;6.430;2023-01-28T13:31:54;101518.84;;;5.39;54.55
19286;BME280;9776;50.798;6.430;2023-01-28T13:34:30;101498.44;;;5.30;54.62